Cap Theodora — SVAM5 — position and weather

sailwx.info

Track history (hours):
 
Tides and Currents Weather Stations Pressure Air Temp Water Temp Dewpoint Dewpoint Depression Visibility Wind Speed Wind Dir Waves Ship Positions

Cap Theodora

Last reported at 2015-Aug-14 16:04 UTC. Time now 2015-Aug-30 09:58 UTC.
Position N 41°27' W 032°16'.
Warning: this ship's position is 15 days out of date.

Length 274 m; draft 15.2 m.

Type: Tanker. MMSI: 240840000.

Date/timePositionNaut miles runAvg speedWind from/ knotsBaromVisibWave heightAir tempDewpointWater temp
2015-Aug-14 16:04N 41°27' W 032°16'815.0
2015-Aug-14 15:33N 41°25' W 032°06'1614.7
2015-Aug-14 14:29N 41°22' W 031°46'1714.3
2015-Aug-14 13:18N 41°19' W 031°24'6914.5
2015-Aug-14 08:33N 41°07' W 029°54'1515.0
2015-Aug-14 07:33N 41°04' W 029°35'1515.2
2015-Aug-14 06:33N 41°00' W 029°15'1715.4
2015-Aug-14 05:28N 40°57' W 028°53'1415.3
2015-Aug-14 04:32N 40°54' W 028°35'4514.9
2015-Aug-14 01:32N 40°44' W 027°37'4414.6
2015-Aug-13 22:33N 40°35' W 026°41'  
2015-Aug-11 15:21N 36°05' W 009°42'1315.2
2015-Aug-11 14:29N 36°02' W 009°27'1714.9
2015-Aug-11 13:23N 35°57' W 009°07'1315.2
2015-Aug-11 12:33N 35°57' W 008°51'3115.1
2015-Aug-11 10:31N 35°57' W 008°13'1815.2
2015-Aug-11 09:21N 35°57' W 007°51'1215.2
2015-Aug-11 08:33N 35°57' W 007°37'1515.1
2015-Aug-11 07:33N 35°58' W 007°18'1515.0
2015-Aug-11 06:33N 35°58' W 006°59'1515.0
2015-Aug-11 05:33N 35°57' W 006°41'3014.5
2015-Aug-11 03:28N 35°58' W 006°03'1213.7
2015-Aug-11 02:33N 35°57' W 005°48'17514.1
2015-Aug-10 14:11N 36°08' W 002°12'1215.3
2015-Aug-10 13:22N 36°08' W 001°57'1315.4
2015-Aug-10 12:32N 36°07' W 001°41'1515.3
2015-Aug-10 11:33N 36°07' W 001°23'3115.4
2015-Aug-10 09:32N 36°06' W 000°44'1914.2
2015-Aug-10 08:13N 36°02' W 000°22'12 0.3
2015-Aug-08 10:31N 35°51' W 000°17'7 6.7
2015-Aug-08 09:27N 35°55' W 000°11'1 1.2
2015-Aug-08 08:31N 35°57' W 000°11'0 0.3
2015-Aug-08 07:08N 35°56' W 000°11'0 0.5
2015-Aug-08 06:31N 35°57' W 000°12'0 0.3
2015-Aug-08 05:18N 35°57' W 000°12'1 0.5
2015-Aug-08 03:22N 35°56' W 000°13'0 0.4
2015-Aug-08 02:24N 35°56' W 000°13'1 1.7
2015-Aug-08 01:33N 35°55' W 000°13'1 0.6
2015-Aug-08 00:32N 35°55' W 000°13'0 0.3
2015-Aug-07 23:24N 35°55' W 000°12'0 0.3
2015-Aug-07 22:06N 35°56' W 000°12'0 0.3
2015-Aug-07 21:33N 35°56' W 000°12'0 0.4
2015-Aug-07 20:32N 35°55' W 000°11'0 0.3
2015-Aug-07 19:33N 35°56' W 000°11'0 0.4
2015-Aug-07 18:33N 35°56' W 000°10'1 0.5
2015-Aug-07 17:33N 35°56' W 000°10'3 3.0
2015-Aug-07 16:33N 35°58' W 000°14'1 0.6
2015-Aug-07 15:33N 35°57' W 000°13'1 0.6
2015-Aug-07 14:33N 35°57' W 000°12'1 1.0
2015-Aug-07 13:33N 35°57' W 000°13'3 3.2
2015-Aug-07 12:33N 35°57' W 000°17'1 0.7
2015-Aug-07 11:33N 35°57' W 000°17'3 3.4
2015-Aug-07 10:33N 35°57' W 000°12'0 0.2
2015-Aug-07 09:33N 35°57' W 000°12'0 0.2
2015-Aug-07 08:32N 35°57' W 000°12'0 0.1
2015-Aug-07 07:04N 35°57' W 000°12'0 0.2
2015-Aug-07 06:33N 35°57' W 000°12'0 0.2
2015-Aug-07 05:33N 35°57' W 000°12'0 0.3
2015-Aug-07 04:33N 35°56' W 000°13'5 5.3
2015-Aug-07 03:32N 36°00' W 000°17'18 8.8
2015-Aug-07 01:31N 36°05' W 000°39'1212.5
2015-Aug-07 00:31N 36°06' W 000°54'1212.6
2015-Aug-06 23:32N 36°06' W 001°09'1212.0
2015-Aug-06 22:33N 36°07' W 001°24'1211.7
2015-Aug-06 21:33N 36°07' W 001°38'1711.6
2015-Aug-06 20:06N 36°08' W 001°59'611.8
2015-Aug-06 19:34N 36°08' W 002°07'1211.8
2015-Aug-06 18:33N 36°09' W 002°22'3511.6
2015-Aug-06 15:34N 36°09' W 003°05'1312.1
2015-Aug-06 14:28N 36°08' W 003°21'1212.7
2015-Aug-06 13:33N 36°07' W 003°36'1713.4
2015-Aug-06 12:16N 36°06' W 003°57'1013.8
2015-Aug-06 11:31N 36°05' W 004°09'1515.9
2015-Aug-06 10:33N 36°04' W 004°28'1615.6
2015-Aug-06 09:31N 36°02' W 004°48'2115.3
2015-Aug-06 08:07N 35°59' W 005°14'6413.7
2015-Aug-06 03:27N 35°54' W 006°33'1011.7
2015-Aug-06 02:34N 35°53' W 006°46'1211.8
2015-Aug-06 01:33N 35°53' W 007°01'1212.0
2015-Aug-06 00:33N 35°54' W 007°16'1412.1
2015-Aug-05 23:23N 35°54' W 007°33'1012.0
2015-Aug-05 22:33N 35°54' W 007°45'1211.9
2015-Aug-05 21:33N 35°54' W 008°00'1211.7
2015-Aug-05 20:33N 35°54' W 008°14'1211.7
2015-Aug-05 19:33N 35°54' W 008°29'1211.6
2015-Aug-05 18:33N 35°53' W 008°43'1211.8
2015-Aug-05 17:33N 35°53' W 008°58'1111.2
2015-Aug-05 16:33N 35°54' W 009°12'1111.1
2015-Aug-05 15:33N 35°54' W 009°25'1111.2
2015-Aug-05 14:33N 35°56' W 009°39'1211.4
2015-Aug-05 13:31N 35°59' W 009°53'1411.3
2015-Aug-05 12:18N 36°03' W 010°10'1311.4
2015-Aug-05 11:12N 36°06' W 010°25'711.3
2015-Aug-05 10:33N 36°08' W 010°33'1211.3
2015-Aug-05 09:29N 36°11' W 010°48'1311.4
2015-Aug-05 08:23N 36°14' W 011°03'3411.2
2015-Aug-05 05:20N 36°24' W 011°43'1011.0
2015-Aug-05 04:26N 36°26' W 011°55'2511.7
2015-Aug-05 02:16N 36°33' W 012°26'6611.5
2015-Aug-04 20:32N 36°51' W 013°45'2811.4
2015-Aug-04 18:08N 36°58' W 014°18'  
Track history (hours):
 
Tides and Currents Weather Stations Pressure Air Temp Water Temp Dewpoint Dewpoint Depression Visibility Wind Speed Wind Dir Waves Ship Positions

Cap Theodora

Last reported at 2015-Aug-14 16:04 UTC. Time now 2015-Aug-30 09:58 UTC.
Position N 41°27' W 032°16'.
Warning: this ship's position is 15 days out of date.

Length 274 m; draft 15.2 m.

Type: Tanker. MMSI: 240840000.

Date/timePositionNaut miles runAvg speedWind from/ knotsBaromVisibWave heightAir tempDewpointWater temp
2015-Aug-14 16:04N 41°27' W 032°16'815.0
2015-Aug-14 15:33N 41°25' W 032°06'1614.7
2015-Aug-14 14:29N 41°22' W 031°46'1714.3
2015-Aug-14 13:18N 41°19' W 031°24'6914.5
2015-Aug-14 08:33N 41°07' W 029°54'1515.0
2015-Aug-14 07:33N 41°04' W 029°35'1515.2
2015-Aug-14 06:33N 41°00' W 029°15'1715.4
2015-Aug-14 05:28N 40°57' W 028°53'1415.3
2015-Aug-14 04:32N 40°54' W 028°35'4514.9
2015-Aug-14 01:32N 40°44' W 027°37'4414.6
2015-Aug-13 22:33N 40°35' W 026°41'  
2015-Aug-11 15:21N 36°05' W 009°42'1315.2
2015-Aug-11 14:29N 36°02' W 009°27'1714.9
2015-Aug-11 13:23N 35°57' W 009°07'1315.2
2015-Aug-11 12:33N 35°57' W 008°51'3115.1
2015-Aug-11 10:31N 35°57' W 008°13'1815.2
2015-Aug-11 09:21N 35°57' W 007°51'1215.2
2015-Aug-11 08:33N 35°57' W 007°37'1515.1
2015-Aug-11 07:33N 35°58' W 007°18'1515.0
2015-Aug-11 06:33N 35°58' W 006°59'1515.0
2015-Aug-11 05:33N 35°57' W 006°41'3014.5
2015-Aug-11 03:28N 35°58' W 006°03'1213.7
2015-Aug-11 02:33N 35°57' W 005°48'17514.1
2015-Aug-10 14:11N 36°08' W 002°12'1215.3
2015-Aug-10 13:22N 36°08' W 001°57'1315.4
2015-Aug-10 12:32N 36°07' W 001°41'1515.3
2015-Aug-10 11:33N 36°07' W 001°23'3115.4
2015-Aug-10 09:32N 36°06' W 000°44'1914.2
2015-Aug-10 08:13N 36°02' W 000°22'12 0.3
2015-Aug-08 10:31N 35°51' W 000°17'7 6.7
2015-Aug-08 09:27N 35°55' W 000°11'1 1.2
2015-Aug-08 08:31N 35°57' W 000°11'0 0.3
2015-Aug-08 07:08N 35°56' W 000°11'0 0.5
2015-Aug-08 06:31N 35°57' W 000°12'0 0.3
2015-Aug-08 05:18N 35°57' W 000°12'1 0.5
2015-Aug-08 03:22N 35°56' W 000°13'0 0.4
2015-Aug-08 02:24N 35°56' W 000°13'1 1.7
2015-Aug-08 01:33N 35°55' W 000°13'1 0.6
2015-Aug-08 00:32N 35°55' W 000°13'0 0.3
2015-Aug-07 23:24N 35°55' W 000°12'0 0.3
2015-Aug-07 22:06N 35°56' W 000°12'0 0.3
2015-Aug-07 21:33N 35°56' W 000°12'0 0.4
2015-Aug-07 20:32N 35°55' W 000°11'0 0.3
2015-Aug-07 19:33N 35°56' W 000°11'0 0.4
2015-Aug-07 18:33N 35°56' W 000°10'1 0.5
2015-Aug-07 17:33N 35°56' W 000°10'3 3.0
2015-Aug-07 16:33N 35°58' W 000°14'1 0.6
2015-Aug-07 15:33N 35°57' W 000°13'1 0.6
2015-Aug-07 14:33N 35°57' W 000°12'1 1.0
2015-Aug-07 13:33N 35°57' W 000°13'3 3.2
2015-Aug-07 12:33N 35°57' W 000°17'1 0.7
2015-Aug-07 11:33N 35°57' W 000°17'3 3.4
2015-Aug-07 10:33N 35°57' W 000°12'0 0.2
2015-Aug-07 09:33N 35°57' W 000°12'0 0.2
2015-Aug-07 08:32N 35°57' W 000°12'0 0.1
2015-Aug-07 07:04N 35°57' W 000°12'0 0.2
2015-Aug-07 06:33N 35°57' W 000°12'0 0.2
2015-Aug-07 05:33N 35°57' W 000°12'0 0.3
2015-Aug-07 04:33N 35°56' W 000°13'5 5.3
2015-Aug-07 03:32N 36°00' W 000°17'18 8.8
2015-Aug-07 01:31N 36°05' W 000°39'1212.5
2015-Aug-07 00:31N 36°06' W 000°54'1212.6
2015-Aug-06 23:32N 36°06' W 001°09'1212.0
2015-Aug-06 22:33N 36°07' W 001°24'1211.7
2015-Aug-06 21:33N 36°07' W 001°38'1711.6
2015-Aug-06 20:06N 36°08' W 001°59'611.8
2015-Aug-06 19:34N 36°08' W 002°07'1211.8
2015-Aug-06 18:33N 36°09' W 002°22'3511.6
2015-Aug-06 15:34N 36°09' W 003°05'1312.1
2015-Aug-06 14:28N 36°08' W 003°21'1212.7
2015-Aug-06 13:33N 36°07' W 003°36'1713.4
2015-Aug-06 12:16N 36°06' W 003°57'1013.8
2015-Aug-06 11:31N 36°05' W 004°09'1515.9
2015-Aug-06 10:33N 36°04' W 004°28'1615.6
2015-Aug-06 09:31N 36°02' W 004°48'2115.3
2015-Aug-06 08:07N 35°59' W 005°14'6413.7
2015-Aug-06 03:27N 35°54' W 006°33'1011.7
2015-Aug-06 02:34N 35°53' W 006°46'1211.8
2015-Aug-06 01:33N 35°53' W 007°01'1212.0
2015-Aug-06 00:33N 35°54' W 007°16'1412.1
2015-Aug-05 23:23N 35°54' W 007°33'1012.0
2015-Aug-05 22:33N 35°54' W 007°45'1211.9
2015-Aug-05 21:33N 35°54' W 008°00'1211.7
2015-Aug-05 20:33N 35°54' W 008°14'1211.7
2015-Aug-05 19:33N 35°54' W 008°29'1211.6
2015-Aug-05 18:33N 35°53' W 008°43'1211.8
2015-Aug-05 17:33N 35°53' W 008°58'1111.2
2015-Aug-05 16:33N 35°54' W 009°12'1111.1
2015-Aug-05 15:33N 35°54' W 009°25'1111.2
2015-Aug-05 14:33N 35°56' W 009°39'1211.4
2015-Aug-05 13:31N 35°59' W 009°53'1411.3
2015-Aug-05 12:18N 36°03' W 010°10'1311.4
2015-Aug-05 11:12N 36°06' W 010°25'711.3
2015-Aug-05 10:33N 36°08' W 010°33'1211.3
2015-Aug-05 09:29N 36°11' W 010°48'1311.4
2015-Aug-05 08:23N 36°14' W 011°03'3411.2
2015-Aug-05 05:20N 36°24' W 011°43'1011.0
2015-Aug-05 04:26N 36°26' W 011°55'2511.7
2015-Aug-05 02:16N 36°33' W 012°26'6611.5
2015-Aug-04 20:32N 36°51' W 013°45'2811.4
2015-Aug-04 18:08N 36°58' W 014°18'  

Dump ship's entire track history